sensor_id;sensor_type;location;lat;lon;timestamp;P1;durP1;ratioP1;P2;durP2;ratioP2
37903;SDS011;23738;50.422;18.758;2023-07-31T00:00:40;3.40;;;1.70;;
37903;SDS011;23738;50.422;18.758;2023-07-31T00:03:09;2.50;;;1.60;;
37903;SDS011;23738;50.422;18.758;2023-07-31T00:05:38;2.90;;;1.90;;
37903;SDS011;23738;50.422;18.758;2023-07-31T00:08:08;2.30;;;1.70;;
37903;SDS011;23738;50.422;18.758;2023-07-31T00:10:37;2.40;;;1.50;;
37903;SDS011;23738;50.422;18.758;2023-07-31T00:13:06;3.60;;;1.50;;
37903;SDS011;23738;50.422;18.758;2023-07-31T00:15:35;2.10;;;1.20;;
37903;SDS011;23738;50.422;18.758;2023-07-31T00:18:05;1.60;;;1.40;;
37903;SDS011;23738;50.422;18.758;2023-07-31T00:20:34;2.40;;;1.60;;
37903;SDS011;23738;50.422;18.758;2023-07-31T00:23:03;3.10;;;1.30;;
37903;SDS011;23738;50.422;18.758;2023-07-31T00:25:32;1.40;;;1.10;;
37903;SDS011;23738;50.422;18.758;2023-07-31T00:28:02;1.90;;;1.30;;
37903;SDS011;23738;50.422;18.758;2023-07-31T00:30:31;4.10;;;1.30;;
37903;SDS011;23738;50.422;18.758;2023-07-31T00:33:01;3.00;;;1.10;;
37903;SDS011;23738;50.422;18.758;2023-07-31T00:35:30;1.90;;;1.40;;
37903;SDS011;23738;50.422;18.758;2023-07-31T00:37:59;3.90;;;1.40;;
37903;SDS011;23738;50.422;18.758;2023-07-31T00:40:29;2.60;;;1.30;;
37903;SDS011;23738;50.422;18.758;2023-07-31T00:43:01;3.00;;;1.30;;
37903;SDS011;23738;50.422;18.758;2023-07-31T00:45:31;2.70;;;1.10;;
37903;SDS011;23738;50.422;18.758;2023-07-31T00:48:01;1.30;;;1.00;;
37903;SDS011;23738;50.422;18.758;2023-07-31T00:50:32;2.30;;;0.90;;
37903;SDS011;23738;50.422;18.758;2023-07-31T00:53:02;1.30;;;1.10;;
37903;SDS011;23738;50.422;18.758;2023-07-31T00:55:31;1.70;;;1.20;;
37903;SDS011;23738;50.422;18.758;2023-07-31T00:58:01;1.70;;;1.40;;
37903;SDS011;23738;50.422;18.758;2023-07-31T01:03:18;2.00;;;1.30;;
37903;SDS011;23738;50.422;18.758;2023-07-31T01:06:51;3.00;;;1.30;;
37903;SDS011;23738;50.422;18.758;2023-07-31T01:10:19;2.10;;;1.30;;
37903;SDS011;23738;50.422;18.758;2023-07-31T01:13:49;1.90;;;1.30;;
37903;SDS011;23738;50.422;18.758;2023-07-31T01:17:24;4.30;;;1.20;;
37903;SDS011;23738;50.422;18.758;2023-07-31T01:20:54;5.80;;;1.70;;
37903;SDS011;23738;50.422;18.758;2023-07-31T01:24:30;2.30;;;1.10;;
37903;SDS011;23738;50.422;18.758;2023-07-31T01:27:44;1.80;;;1.00;;
37903;SDS011;23738;50.422;18.758;2023-07-31T01:30:29;3.10;;;1.40;;
37903;SDS011;23738;50.422;18.758;2023-07-31T01:33:05;1.60;;;1.10;;
37903;SDS011;23738;50.422;18.758;2023-07-31T01:36:34;1.50;;;1.30;;
37903;SDS011;23738;50.422;18.758;2023-07-31T01:40:06;2.30;;;1.00;;
37903;SDS011;23738;50.422;18.758;2023-07-31T01:43:35;2.00;;;0.90;;
37903;SDS011;23738;50.422;18.758;2023-07-31T01:47:05;1.20;;;1.00;;
37903;SDS011;23738;50.422;18.758;2023-07-31T01:50:35;1.40;;;1.10;;
37903;SDS011;23738;50.422;18.758;2023-07-31T01:54:02;1.50;;;1.20;;
37903;SDS011;23738;50.422;18.758;2023-07-31T01:57:31;1.80;;;1.20;;
37903;SDS011;23738;50.422;18.758;2023-07-31T02:01:00;1.50;;;1.10;;
37903;SDS011;23738;50.422;18.758;2023-07-31T02:04:27;2.10;;;1.50;;
37903;SDS011;23738;50.422;18.758;2023-07-31T02:07:56;2.20;;;1.50;;
37903;SDS011;23738;50.422;18.758;2023-07-31T02:11:26;6.20;;;1.50;;
37903;SDS011;23738;50.422;18.758;2023-07-31T02:15:06;1.20;;;1.00;;
37903;SDS011;23738;50.422;18.758;2023-07-31T02:18:35;1.60;;;1.50;;
37903;SDS011;23738;50.422;18.758;2023-07-31T02:22:18;3.20;;;1.50;;
37903;SDS011;23738;50.422;18.758;2023-07-31T02:25:47;4.30;;;1.20;;
37903;SDS011;23738;50.422;18.758;2023-07-31T02:29:16;2.20;;;1.40;;
37903;SDS011;23738;50.422;18.758;2023-07-31T02:32:52;2.90;;;1.10;;
37903;SDS011;23738;50.422;18.758;2023-07-31T02:36:21;5.20;;;1.10;;
37903;SDS011;23738;50.422;18.758;2023-07-31T02:39:53;2.70;;;1.40;;
37903;SDS011;23738;50.422;18.758;2023-07-31T02:43:41;6.90;;;1.60;;
37903;SDS011;23738;50.422;18.758;2023-07-31T02:47:10;2.80;;;1.20;;
37903;SDS011;23738;50.422;18.758;2023-07-31T02:50:39;3.60;;;1.20;;
37903;SDS011;23738;50.422;18.758;2023-07-31T02:54:06;1.60;;;1.40;;
37903;SDS011;23738;50.422;18.758;2023-07-31T02:57:35;3.60;;;2.10;;
37903;SDS011;23738;50.422;18.758;2023-07-31T03:01:02;2.60;;;1.40;;
37903;SDS011;23738;50.422;18.758;2023-07-31T03:04:37;4.00;;;1.20;;
37903;SDS011;23738;50.422;18.758;2023-07-31T03:07:44;2.30;;;1.10;;
37903;SDS011;23738;50.422;18.758;2023-07-31T03:10:59;5.00;;;1.40;;
37903;SDS011;23738;50.422;18.758;2023-07-31T03:14:29;2.80;;;1.30;;
37903;SDS011;23738;50.422;18.758;2023-07-31T03:17:41;3.20;;;1.90;;
37903;SDS011;23738;50.422;18.758;2023-07-31T03:20:31;3.10;;;1.20;;
37903;SDS011;23738;50.422;18.758;2023-07-31T03:24:00;2.70;;;1.00;;
37903;SDS011;23738;50.422;18.758;2023-07-31T03:26:50;2.10;;;1.00;;
37903;SDS011;23738;50.422;18.758;2023-07-31T03:30:19;1.80;;;1.20;;
37903;SDS011;23738;50.422;18.758;2023-07-31T03:33:49;3.80;;;1.20;;
37903;SDS011;23738;50.422;18.758;2023-07-31T03:37:16;2.70;;;2.00;;
37903;SDS011;23738;50.422;18.758;2023-07-31T03:40:56;2.50;;;1.00;;
37903;SDS011;23738;50.422;18.758;2023-07-31T03:44:25;1.90;;;1.10;;
37903;SDS011;23738;50.422;18.758;2023-07-31T03:47:54;2.00;;;1.20;;
37903;SDS011;23738;50.422;18.758;2023-07-31T03:51:20;2.20;;;1.30;;
37903;SDS011;23738;50.422;18.758;2023-07-31T03:55:01;6.20;;;1.40;;
37903;SDS011;23738;50.422;18.758;2023-07-31T03:58:28;2.70;;;1.20;;
37903;SDS011;23738;50.422;18.758;2023-07-31T04:01:40;3.60;;;1.20;;
37903;SDS011;23738;50.422;18.758;2023-07-31T04:05:09;2.10;;;1.30;;
37903;SDS011;23738;50.422;18.758;2023-07-31T04:08:36;3.80;;;1.50;;
37903;SDS011;23738;50.422;18.758;2023-07-31T04:12:05;3.10;;;1.60;;
37903;SDS011;23738;50.422;18.758;2023-07-31T04:15:32;5.40;;;1.50;;
37903;SDS011;23738;50.422;18.758;2023-07-31T04:19:01;1.60;;;1.20;;
37903;SDS011;23738;50.422;18.758;2023-07-31T04:22:30;4.80;;;1.60;;
37903;SDS011;23738;50.422;18.758;2023-07-31T04:26:00;2.00;;;1.30;;
37903;SDS011;23738;50.422;18.758;2023-07-31T04:29:29;3.80;;;1.80;;
37903;SDS011;23738;50.422;18.758;2023-07-31T04:32:58;2.90;;;1.30;;
37903;SDS011;23738;50.422;18.758;2023-07-31T04:36:33;3.60;;;1.00;;
37903;SDS011;23738;50.422;18.758;2023-07-31T04:40:02;3.50;;;1.70;;
37903;SDS011;23738;50.422;18.758;2023-07-31T04:43:35;2.90;;;1.70;;
37903;SDS011;23738;50.422;18.758;2023-07-31T04:46:44;4.10;;;1.60;;
37903;SDS011;23738;50.422;18.758;2023-07-31T04:49:53;2.30;;;1.30;;
37903;SDS011;23738;50.422;18.758;2023-07-31T04:53:22;3.70;;;1.50;;
37903;SDS011;23738;50.422;18.758;2023-07-31T04:56:52;2.90;;;1.70;;
37903;SDS011;23738;50.422;18.758;2023-07-31T05:00:21;7.80;;;2.90;;
37903;SDS011;23738;50.422;18.758;2023-07-31T05:03:50;6.60;;;3.10;;
37903;SDS011;23738;50.422;18.758;2023-07-31T05:07:21;3.60;;;2.00;;
37903;SDS011;23738;50.422;18.758;2023-07-31T05:10:50;1.60;;;1.40;;
37903;SDS011;23738;50.422;18.758;2023-07-31T05:14:19;5.10;;;1.70;;
37903;SDS011;23738;50.422;18.758;2023-07-31T05:17:48;4.70;;;2.00;;
37903;SDS011;23738;50.422;18.758;2023-07-31T05:21:15;3.60;;;1.70;;
37903;SDS011;23738;50.422;18.758;2023-07-31T05:23:47;2.90;;;1.50;;
37903;SDS011;23738;50.422;18.758;2023-07-31T05:27:28;4.50;;;1.70;;
37903;SDS011;23738;50.422;18.758;2023-07-31T05:30:59;3.50;;;1.50;;
37903;SDS011;23738;50.422;18.758;2023-07-31T05:34:30;4.30;;;1.60;;
37903;SDS011;23738;50.422;18.758;2023-07-31T05:37:59;4.00;;;1.50;;
37903;SDS011;23738;50.422;18.758;2023-07-31T05:41:36;3.70;;;1.50;;
37903;SDS011;23738;50.422;18.758;2023-07-31T05:45:10;3.50;;;1.30;;
37903;SDS011;23738;50.422;18.758;2023-07-31T05:48:41;3.20;;;1.60;;
37903;SDS011;23738;50.422;18.758;2023-07-31T05:52:11;3.60;;;1.20;;
37903;SDS011;23738;50.422;18.758;2023-07-31T05:55:38;2.30;;;1.10;;
37903;SDS011;23738;50.422;18.758;2023-07-31T05:58:55;2.60;;;1.30;;
37903;SDS011;23738;50.422;18.758;2023-07-31T06:02:43;2.30;;;1.20;;
37903;SDS011;23738;50.422;18.758;2023-07-31T06:06:10;2.90;;;1.30;;
37903;SDS011;23738;50.422;18.758;2023-07-31T06:09:36;5.30;;;1.70;;
37903;SDS011;23738;50.422;18.758;2023-07-31T06:13:06;2.60;;;1.00;;
37903;SDS011;23738;50.422;18.758;2023-07-31T06:16:35;2.90;;;1.10;;
37903;SDS011;23738;50.422;18.758;2023-07-31T06:20:06;2.80;;;1.00;;
37903;SDS011;23738;50.422;18.758;2023-07-31T06:23:35;5.40;;;1.90;;
37903;SDS011;23738;50.422;18.758;2023-07-31T06:27:02;4.30;;;1.20;;
37903;SDS011;23738;50.422;18.758;2023-07-31T06:30:29;3.70;;;1.10;;
37903;SDS011;23738;50.422;18.758;2023-07-31T06:33:52;4.90;;;1.00;;
37903;SDS011;23738;50.422;18.758;2023-07-31T06:37:21;2.40;;;1.10;;
37903;SDS011;23738;50.422;18.758;2023-07-31T06:40:50;7.60;;;1.20;;
37903;SDS011;23738;50.422;18.758;2023-07-31T06:44:19;2.90;;;1.10;;
37903;SDS011;23738;50.422;18.758;2023-07-31T06:47:49;3.80;;;1.30;;
37903;SDS011;23738;50.422;18.758;2023-07-31T06:51:18;5.30;;;1.20;;
37903;SDS011;23738;50.422;18.758;2023-07-31T06:54:35;3.00;;;1.30;;
37903;SDS011;23738;50.422;18.758;2023-07-31T06:58:10;2.30;;;0.90;;
37903;SDS011;23738;50.422;18.758;2023-07-31T07:01:50;1.80;;;0.90;;
37903;SDS011;23738;50.422;18.758;2023-07-31T07:05:19;4.20;;;1.10;;
37903;SDS011;23738;50.422;18.758;2023-07-31T07:08:48;5.30;;;1.10;;
37903;SDS011;23738;50.422;18.758;2023-07-31T07:12:18;2.20;;;1.00;;
37903;SDS011;23738;50.422;18.758;2023-07-31T07:15:49;2.60;;;0.80;;
37903;SDS011;23738;50.422;18.758;2023-07-31T07:18:54;2.70;;;0.90;;
37903;SDS011;23738;50.422;18.758;2023-07-31T07:21:24;3.10;;;0.90;;
37903;SDS011;23738;50.422;18.758;2023-07-31T07:24:53;1.50;;;0.90;;
37903;SDS011;23738;50.422;18.758;2023-07-31T07:28:22;3.00;;;0.90;;
37903;SDS011;23738;50.422;18.758;2023-07-31T07:31:49;3.20;;;1.20;;
37903;SDS011;23738;50.422;18.758;2023-07-31T07:35:18;2.70;;;1.00;;
37903;SDS011;23738;50.422;18.758;2023-07-31T07:39:06;2.70;;;1.20;;
37903;SDS011;23738;50.422;18.758;2023-07-31T07:42:36;5.40;;;1.40;;
37903;SDS011;23738;50.422;18.758;2023-07-31T07:46:03;4.00;;;1.20;;
37903;SDS011;23738;50.422;18.758;2023-07-31T07:49:42;4.00;;;1.10;;
37903;SDS011;23738;50.422;18.758;2023-07-31T07:53:11;1.80;;;1.10;;
37903;SDS011;23738;50.422;18.758;2023-07-31T07:56:40;3.30;;;1.10;;
37903;SDS011;23738;50.422;18.758;2023-07-31T07:59:58;3.00;;;1.20;;
37903;SDS011;23738;50.422;18.758;2023-07-31T08:03:25;4.00;;;1.20;;
37903;SDS011;23738;50.422;18.758;2023-07-31T08:06:54;2.90;;;1.10;;
37903;SDS011;23738;50.422;18.758;2023-07-31T08:10:23;2.90;;;1.20;;
37903;SDS011;23738;50.422;18.758;2023-07-31T08:13:50;3.80;;;1.10;;
37903;SDS011;23738;50.422;18.758;2023-07-31T08:17:17;2.70;;;1.00;;
37903;SDS011;23738;50.422;18.758;2023-07-31T08:20:56;7.00;;;1.20;;
37903;SDS011;23738;50.422;18.758;2023-07-31T08:24:26;1.90;;;1.10;;
37903;SDS011;23738;50.422;18.758;2023-07-31T08:27:15;4.40;;;1.00;;
37903;SDS011;23738;50.422;18.758;2023-07-31T08:30:44;2.70;;;1.10;;
37903;SDS011;23738;50.422;18.758;2023-07-31T08:33:53;3.60;;;1.20;;
37903;SDS011;23738;50.422;18.758;2023-07-31T08:36:23;3.70;;;1.50;;
37903;SDS011;23738;50.422;18.758;2023-07-31T08:39:52;2.90;;;2.00;;
37903;SDS011;23738;50.422;18.758;2023-07-31T08:43:21;3.20;;;1.10;;
37903;SDS011;23738;50.422;18.758;2023-07-31T08:46:48;3.70;;;1.10;;
37903;SDS011;23738;50.422;18.758;2023-07-31T08:50:18;1.80;;;0.90;;
37903;SDS011;23738;50.422;18.758;2023-07-31T08:53:27;3.00;;;0.80;;
37903;SDS011;23738;50.422;18.758;2023-07-31T08:57:03;3.40;;;1.00;;
37903;SDS011;23738;50.422;18.758;2023-07-31T09:00:30;2.00;;;0.80;;
37903;SDS011;23738;50.422;18.758;2023-07-31T09:04:14;2.30;;;0.90;;
37903;SDS011;23738;50.422;18.758;2023-07-31T09:07:50;3.70;;;1.40;;
37903;SDS011;23738;50.422;18.758;2023-07-31T09:11:19;4.40;;;1.00;;
37903;SDS011;23738;50.422;18.758;2023-07-31T09:14:44;3.00;;;0.90;;
37903;SDS011;23738;50.422;18.758;2023-07-31T09:18:15;1.90;;;0.90;;
37903;SDS011;23738;50.422;18.758;2023-07-31T09:21:49;4.30;;;0.90;;
37903;SDS011;23738;50.422;18.758;2023-07-31T09:25:19;4.20;;;0.90;;
37903;SDS011;23738;50.422;18.758;2023-07-31T09:28:50;2.30;;;0.90;;
37903;SDS011;23738;50.422;18.758;2023-07-31T09:32:16;5.10;;;1.00;;
37903;SDS011;23738;50.422;18.758;2023-07-31T09:35:29;3.10;;;0.90;;
37903;SDS011;23738;50.422;18.758;2023-07-31T09:38:55;2.20;;;1.00;;
37903;SDS011;23738;50.422;18.758;2023-07-31T09:42:25;2.80;;;0.80;;
37903;SDS011;23738;50.422;18.758;2023-07-31T09:45:55;5.30;;;1.10;;
37903;SDS011;23738;50.422;18.758;2023-07-31T09:49:24;2.20;;;1.00;;
37903;SDS011;23738;50.422;18.758;2023-07-31T09:52:00;2.00;;;0.80;;
37903;SDS011;23738;50.422;18.758;2023-07-31T09:54:39;2.90;;;0.90;;
37903;SDS011;23738;50.422;18.758;2023-07-31T09:57:08;5.60;;;0.90;;
37903;SDS011;23738;50.422;18.758;2023-07-31T09:59:39;3.20;;;0.90;;
37903;SDS011;23738;50.422;18.758;2023-07-31T10:02:14;2.60;;;1.00;;
37903;SDS011;23738;50.422;18.758;2023-07-31T10:05:05;3.30;;;0.80;;
37903;SDS011;23738;50.422;18.758;2023-07-31T10:07:37;3.30;;;1.00;;
37903;SDS011;23738;50.422;18.758;2023-07-31T10:10:27;1.70;;;0.70;;
37903;SDS011;23738;50.422;18.758;2023-07-31T10:13:37;3.90;;;0.80;;
37903;SDS011;23738;50.422;18.758;2023-07-31T10:16:29;1.80;;;0.80;;
37903;SDS011;23738;50.422;18.758;2023-07-31T10:19:19;2.90;;;0.80;;
37903;SDS011;23738;50.422;18.758;2023-07-31T10:22:16;2.30;;;0.90;;
37903;SDS011;23738;50.422;18.758;2023-07-31T10:25:34;1.90;;;0.80;;
37903;SDS011;23738;50.422;18.758;2023-07-31T10:28:07;2.40;;;0.90;;
37903;SDS011;23738;50.422;18.758;2023-07-31T10:30:42;7.30;;;1.00;;
37903;SDS011;23738;50.422;18.758;2023-07-31T10:33:35;2.80;;;1.00;;
37903;SDS011;23738;50.422;18.758;2023-07-31T10:36:32;3.50;;;0.90;;
37903;SDS011;23738;50.422;18.758;2023-07-31T10:39:04;2.30;;;0.90;;
37903;SDS011;23738;50.422;18.758;2023-07-31T10:42:11;2.80;;;1.20;;
37903;SDS011;23738;50.422;18.758;2023-07-31T10:45:02;3.50;;;0.90;;
37903;SDS011;23738;50.422;18.758;2023-07-31T10:47:38;2.40;;;0.80;;
37903;SDS011;23738;50.422;18.758;2023-07-31T10:50:21;1.30;;;0.70;;
37903;SDS011;23738;50.422;18.758;2023-07-31T10:52:52;2.50;;;0.80;;
37903;SDS011;23738;50.422;18.758;2023-07-31T10:56:30;2.40;;;0.90;;
37903;SDS011;23738;50.422;18.758;2023-07-31T11:00:10;2.50;;;0.80;;
37903;SDS011;23738;50.422;18.758;2023-07-31T11:03:42;3.30;;;0.80;;
37903;SDS011;23738;50.422;18.758;2023-07-31T11:07:24;3.60;;;1.10;;
37903;SDS011;23738;50.422;18.758;2023-07-31T11:11:06;2.90;;;0.90;;
37903;SDS011;23738;50.422;18.758;2023-07-31T11:13:55;2.30;;;0.90;;
37903;SDS011;23738;50.422;18.758;2023-07-31T11:17:25;1.40;;;0.80;;
37903;SDS011;23738;50.422;18.758;2023-07-31T11:20:55;3.80;;;0.60;;
37903;SDS011;23738;50.422;18.758;2023-07-31T11:24:33;1.90;;;0.80;;
37903;SDS011;23738;50.422;18.758;2023-07-31T11:28:04;3.30;;;0.70;;
37903;SDS011;23738;50.422;18.758;2023-07-31T11:31:34;1.90;;;0.60;;
37903;SDS011;23738;50.422;18.758;2023-07-31T11:35:03;4.10;;;2.00;;
37903;SDS011;23738;50.422;18.758;2023-07-31T11:37:41;2.30;;;0.90;;
37903;SDS011;23738;50.422;18.758;2023-07-31T11:40:12;2.80;;;1.30;;
37903;SDS011;23738;50.422;18.758;2023-07-31T11:43:39;4.10;;;3.30;;
37903;SDS011;23738;50.422;18.758;2023-07-31T11:46:09;9.10;;;4.50;;
37903;SDS011;23738;50.422;18.758;2023-07-31T11:48:39;3.90;;;3.10;;
37903;SDS011;23738;50.422;18.758;2023-07-31T11:51:10;7.30;;;5.40;;
37903;SDS011;23738;50.422;18.758;2023-07-31T11:54:39;15.50;;;11.00;;
37903;SDS011;23738;50.422;18.758;2023-07-31T11:58:08;5.90;;;4.80;;
37903;SDS011;23738;50.422;18.758;2023-07-31T12:01:37;6.90;;;6.00;;
37903;SDS011;23738;50.422;18.758;2023-07-31T12:05:21;7.00;;;3.50;;
37903;SDS011;23738;50.422;18.758;2023-07-31T12:08:11;7.40;;;4.70;;
37903;SDS011;23738;50.422;18.758;2023-07-31T12:10:42;7.70;;;3.70;;
37903;SDS011;23738;50.422;18.758;2023-07-31T12:14:08;12.90;;;5.00;;
37903;SDS011;23738;50.422;18.758;2023-07-31T12:17:37;9.50;;;5.50;;
37903;SDS011;23738;50.422;18.758;2023-07-31T12:20:48;5.10;;;3.00;;
37903;SDS011;23738;50.422;18.758;2023-07-31T12:24:16;7.70;;;4.80;;
37903;SDS011;23738;50.422;18.758;2023-07-31T12:27:45;4.10;;;1.80;;
37903;SDS011;23738;50.422;18.758;2023-07-31T12:31:15;1.80;;;0.80;;
37903;SDS011;23738;50.422;18.758;2023-07-31T12:37:50;4.10;;;1.50;;
37903;SDS011;23738;50.422;18.758;2023-07-31T12:41:20;8.80;;;5.10;;
37903;SDS011;23738;50.422;18.758;2023-07-31T12:44:44;6.10;;;2.90;;
37903;SDS011;23738;50.422;18.758;2023-07-31T12:47:14;3.80;;;1.50;;
37903;SDS011;23738;50.422;18.758;2023-07-31T12:50:41;7.10;;;4.20;;
37903;SDS011;23738;50.422;18.758;2023-07-31T12:54:08;5.00;;;3.50;;
37903;SDS011;23738;50.422;18.758;2023-07-31T12:57:35;5.40;;;3.60;;
37903;SDS011;23738;50.422;18.758;2023-07-31T13:01:02;2.90;;;1.50;;
37903;SDS011;23738;50.422;18.758;2023-07-31T13:04:12;5.50;;;0.90;;
37903;SDS011;23738;50.422;18.758;2023-07-31T13:07:41;46.50;;;28.00;;
37903;SDS011;23738;50.422;18.758;2023-07-31T13:14:36;7.90;;;6.60;;
37903;SDS011;23738;50.422;18.758;2023-07-31T13:18:04;4.30;;;2.80;;
37903;SDS011;23738;50.422;18.758;2023-07-31T13:20:53;5.00;;;3.40;;
37903;SDS011;23738;50.422;18.758;2023-07-31T13:24:23;4.30;;;2.50;;
37903;SDS011;23738;50.422;18.758;2023-07-31T13:27:50;4.60;;;2.10;;
37903;SDS011;23738;50.422;18.758;2023-07-31T13:30:20;20.80;;;12.70;;
37903;SDS011;23738;50.422;18.758;2023-07-31T13:32:50;11.20;;;7.90;;
37903;SDS011;23738;50.422;18.758;2023-07-31T13:35:39;8.40;;;5.70;;
37903;SDS011;23738;50.422;18.758;2023-07-31T13:38:09;6.90;;;4.00;;
37903;SDS011;23738;50.422;18.758;2023-07-31T13:40:39;5.30;;;2.90;;
37903;SDS011;23738;50.422;18.758;2023-07-31T13:47:31;3.00;;;1.60;;
37903;SDS011;23738;50.422;18.758;2023-07-31T13:50:20;4.20;;;1.00;;
37903;SDS011;23738;50.422;18.758;2023-07-31T13:52:51;3.10;;;1.20;;
37903;SDS011;23738;50.422;18.758;2023-07-31T13:56:36;4.10;;;1.30;;
37903;SDS011;23738;50.422;18.758;2023-07-31T14:00:06;1.40;;;0.70;;
37903;SDS011;23738;50.422;18.758;2023-07-31T14:03:35;0.70;;;0.50;;
37903;SDS011;23738;50.422;18.758;2023-07-31T14:07:00;0.70;;;0.40;;
37903;SDS011;23738;50.422;18.758;2023-07-31T14:09:30;5.00;;;0.70;;
37903;SDS011;23738;50.422;18.758;2023-07-31T14:13:00;2.60;;;0.70;;
37903;SDS011;23738;50.422;18.758;2023-07-31T14:15:49;1.60;;;0.60;;
37903;SDS011;23738;50.422;18.758;2023-07-31T14:18:19;2.80;;;0.60;;
37903;SDS011;23738;50.422;18.758;2023-07-31T14:20:49;2.90;;;0.70;;
37903;SDS011;23738;50.422;18.758;2023-07-31T14:23:18;1.00;;;0.50;;
37903;SDS011;23738;50.422;18.758;2023-07-31T14:29:53;1.90;;;0.60;;
37903;SDS011;23738;50.422;18.758;2023-07-31T14:33:17;0.70;;;0.40;;
37903;SDS011;23738;50.422;18.758;2023-07-31T14:36:07;1.20;;;0.70;;
37903;SDS011;23738;50.422;18.758;2023-07-31T14:39:36;1.60;;;0.60;;
37903;SDS011;23738;50.422;18.758;2023-07-31T14:43:11;0.80;;;0.60;;
37903;SDS011;23738;50.422;18.758;2023-07-31T14:46:50;2.90;;;0.70;;
37903;SDS011;23738;50.422;18.758;2023-07-31T14:50:20;3.30;;;0.60;;
37903;SDS011;23738;50.422;18.758;2023-07-31T14:53:30;8.40;;;0.80;;
37903;SDS011;23738;50.422;18.758;2023-07-31T14:56:16;1.70;;;0.80;;
37903;SDS011;23738;50.422;18.758;2023-07-31T14:59:25;1.60;;;0.70;;
37903;SDS011;23738;50.422;18.758;2023-07-31T15:02:51;2.10;;;0.70;;
37903;SDS011;23738;50.422;18.758;2023-07-31T15:06:34;2.40;;;0.60;;
37903;SDS011;23738;50.422;18.758;2023-07-31T15:10:07;2.00;;;0.50;;
37903;SDS011;23738;50.422;18.758;2023-07-31T15:13:34;2.40;;;1.00;;
37903;SDS011;23738;50.422;18.758;2023-07-31T15:17:04;0.90;;;0.50;;
37903;SDS011;23738;50.422;18.758;2023-07-31T15:20:43;0.80;;;0.50;;
37903;SDS011;23738;50.422;18.758;2023-07-31T15:24:22;3.10;;;0.50;;
37903;SDS011;23738;50.422;18.758;2023-07-31T15:27:52;3.80;;;0.60;;
37903;SDS011;23738;50.422;18.758;2023-07-31T15:31:21;0.40;;;0.40;;
37903;SDS011;23738;50.422;18.758;2023-07-31T15:34:50;1.10;;;0.50;;
37903;SDS011;23738;50.422;18.758;2023-07-31T15:38:38;6.10;;;0.50;;
37903;SDS011;23738;50.422;18.758;2023-07-31T15:42:05;0.80;;;0.50;;
37903;SDS011;23738;50.422;18.758;2023-07-31T15:45:43;1.10;;;0.50;;
37903;SDS011;23738;50.422;18.758;2023-07-31T15:49:21;0.70;;;0.50;;
37903;SDS011;23738;50.422;18.758;2023-07-31T15:52:52;1.50;;;0.60;;
37903;SDS011;23738;50.422;18.758;2023-07-31T15:56:21;1.20;;;0.50;;
37903;SDS011;23738;50.422;18.758;2023-07-31T15:59:50;0.90;;;0.60;;
37903;SDS011;23738;50.422;18.758;2023-07-31T16:03:17;1.00;;;0.60;;
37903;SDS011;23738;50.422;18.758;2023-07-31T16:06:47;1.30;;;0.50;;
37903;SDS011;23738;50.422;18.758;2023-07-31T16:10:28;4.80;;;0.60;;
37903;SDS011;23738;50.422;18.758;2023-07-31T16:13:57;2.10;;;0.60;;
37903;SDS011;23738;50.422;18.758;2023-07-31T16:17:26;1.20;;;0.60;;
37903;SDS011;23738;50.422;18.758;2023-07-31T16:20:55;2.20;;;0.80;;
37903;SDS011;23738;50.422;18.758;2023-07-31T16:24:22;1.70;;;0.70;;
37903;SDS011;23738;50.422;18.758;2023-07-31T16:27:54;2.60;;;0.90;;
37903;SDS011;23738;50.422;18.758;2023-07-31T16:31:25;1.70;;;0.80;;
37903;SDS011;23738;50.422;18.758;2023-07-31T16:34:57;1.50;;;0.90;;
37903;SDS011;23738;50.422;18.758;2023-07-31T16:38:25;0.90;;;0.80;;
37903;SDS011;23738;50.422;18.758;2023-07-31T16:41:15;1.80;;;0.90;;
37903;SDS011;23738;50.422;18.758;2023-07-31T16:43:46;2.70;;;0.90;;
37903;SDS011;23738;50.422;18.758;2023-07-31T16:47:13;1.20;;;0.90;;
37903;SDS011;23738;50.422;18.758;2023-07-31T16:50:42;1.60;;;0.80;;
37903;SDS011;23738;50.422;18.758;2023-07-31T16:54:11;1.80;;;0.90;;
37903;SDS011;23738;50.422;18.758;2023-07-31T16:57:46;2.30;;;0.80;;
37903;SDS011;23738;50.422;18.758;2023-07-31T17:01:13;2.50;;;0.90;;
37903;SDS011;23738;50.422;18.758;2023-07-31T17:04:43;2.40;;;0.90;;
37903;SDS011;23738;50.422;18.758;2023-07-31T17:08:13;3.50;;;1.20;;
37903;SDS011;23738;50.422;18.758;2023-07-31T17:11:45;2.40;;;1.30;;
37903;SDS011;23738;50.422;18.758;2023-07-31T17:15:29;2.40;;;1.30;;
37903;SDS011;23738;50.422;18.758;2023-07-31T17:19:02;2.20;;;1.50;;
37903;SDS011;23738;50.422;18.758;2023-07-31T17:22:31;3.10;;;1.30;;
37903;SDS011;23738;50.422;18.758;2023-07-31T17:26:00;5.90;;;2.60;;
37903;SDS011;23738;50.422;18.758;2023-07-31T17:29:39;19.50;;;10.10;;
37903;SDS011;23738;50.422;18.758;2023-07-31T17:33:11;32.40;;;17.50;;
37903;SDS011;23738;50.422;18.758;2023-07-31T17:39:46;59.70;;;28.70;;
37903;SDS011;23738;50.422;18.758;2023-07-31T17:43:16;81.70;;;41.30;;
37903;SDS011;23738;50.422;18.758;2023-07-31T17:46:45;66.00;;;35.90;;
37903;SDS011;23738;50.422;18.758;2023-07-31T17:50:14;35.70;;;21.80;;
37903;SDS011;23738;50.422;18.758;2023-07-31T17:53:53;39.00;;;22.50;;
37903;SDS011;23738;50.422;18.758;2023-07-31T17:57:22;38.80;;;23.20;;
37903;SDS011;23738;50.422;18.758;2023-07-31T18:00:52;31.40;;;21.20;;
37903;SDS011;23738;50.422;18.758;2023-07-31T18:04:23;19.50;;;14.70;;
37903;SDS011;23738;50.422;18.758;2023-07-31T18:10:58;12.10;;;8.00;;
37903;SDS011;23738;50.422;18.758;2023-07-31T18:14:27;15.20;;;10.00;;
37903;SDS011;23738;50.422;18.758;2023-07-31T18:17:56;15.10;;;8.20;;
37903;SDS011;23738;50.422;18.758;2023-07-31T18:21:40;9.60;;;4.90;;
37903;SDS011;23738;50.422;18.758;2023-07-31T18:25:10;7.50;;;5.00;;
37903;SDS011;23738;50.422;18.758;2023-07-31T18:28:40;44.50;;;18.70;;
37903;SDS011;23738;50.422;18.758;2023-07-31T18:31:50;39.80;;;18.50;;
37903;SDS011;23738;50.422;18.758;2023-07-31T18:34:39;44.80;;;17.00;;
37903;SDS011;23738;50.422;18.758;2023-07-31T18:37:09;45.60;;;18.50;;
37903;SDS011;23738;50.422;18.758;2023-07-31T18:39:39;78.30;;;30.90;;
37903;SDS011;23738;50.422;18.758;2023-07-31T18:43:08;82.90;;;33.50;;
37903;SDS011;23738;50.422;18.758;2023-07-31T18:46:37;59.20;;;24.60;;
37903;SDS011;23738;50.422;18.758;2023-07-31T18:50:04;49.80;;;19.90;;
37903;SDS011;23738;50.422;18.758;2023-07-31T18:53:31;36.50;;;16.90;;
37903;SDS011;23738;50.422;18.758;2023-07-31T18:56:58;36.10;;;14.40;;
37903;SDS011;23738;50.422;18.758;2023-07-31T19:00:27;19.50;;;10.80;;
37903;SDS011;23738;50.422;18.758;2023-07-31T19:04:12;34.30;;;14.90;;
37903;SDS011;23738;50.422;18.758;2023-07-31T19:07:38;27.20;;;13.10;;
37903;SDS011;23738;50.422;18.758;2023-07-31T19:11:08;23.00;;;11.30;;
37903;SDS011;23738;50.422;18.758;2023-07-31T19:14:37;18.90;;;10.20;;
37903;SDS011;23738;50.422;18.758;2023-07-31T19:18:06;14.20;;;7.40;;
37903;SDS011;23738;50.422;18.758;2023-07-31T19:21:47;11.30;;;5.70;;
37903;SDS011;23738;50.422;18.758;2023-07-31T19:25:25;8.10;;;5.00;;
37903;SDS011;23738;50.422;18.758;2023-07-31T19:28:54;8.70;;;3.50;;
37903;SDS011;23738;50.422;18.758;2023-07-31T19:32:24;8.70;;;2.40;;
37903;SDS011;23738;50.422;18.758;2023-07-31T19:35:56;11.70;;;4.70;;
37903;SDS011;23738;50.422;18.758;2023-07-31T19:39:24;5.30;;;3.20;;
37903;SDS011;23738;50.422;18.758;2023-07-31T19:42:54;14.70;;;4.50;;
37903;SDS011;23738;50.422;18.758;2023-07-31T19:46:23;12.10;;;3.10;;